sensor_id;sensor_type;location;lat;lon;timestamp;P1;durP1;ratioP1;P2;durP2;ratioP2
4738;SDS011;2383;48.632;10.156;2022-07-19T00:00:45;4.65;;;2.25;;
4738;SDS011;2383;48.632;10.156;2022-07-19T00:04:49;3.70;;;3.05;;
4738;SDS011;2383;48.632;10.156;2022-07-19T00:08:52;3.05;;;2.50;;
4738;SDS011;2383;48.632;10.156;2022-07-19T00:12:54;5.03;;;2.75;;
4738;SDS011;2383;48.632;10.156;2022-07-19T00:16:56;3.78;;;2.60;;
4738;SDS011;2383;48.632;10.156;2022-07-19T00:20:57;3.53;;;2.67;;
4738;SDS011;2383;48.632;10.156;2022-07-19T00:24:59;3.78;;;2.78;;
4738;SDS011;2383;48.632;10.156;2022-07-19T00:29:01;4.85;;;2.53;;
4738;SDS011;2383;48.632;10.156;2022-07-19T00:33:04;3.80;;;2.53;;
4738;SDS011;2383;48.632;10.156;2022-07-19T00:37:09;3.22;;;2.65;;
4738;SDS011;2383;48.632;10.156;2022-07-19T00:41:11;3.33;;;2.53;;
4738;SDS011;2383;48.632;10.156;2022-07-19T00:45:13;4.85;;;2.75;;
4738;SDS011;2383;48.632;10.156;2022-07-19T00:49:15;6.05;;;2.55;;
4738;SDS011;2383;48.632;10.156;2022-07-19T00:53:17;4.40;;;2.30;;
4738;SDS011;2383;48.632;10.156;2022-07-19T00:57:20;3.72;;;2.63;;
4738;SDS011;2383;48.632;10.156;2022-07-19T01:01:24;4.40;;;2.65;;
4738;SDS011;2383;48.632;10.156;2022-07-19T01:05:27;4.95;;;2.40;;
4738;SDS011;2383;48.632;10.156;2022-07-19T01:09:29;3.83;;;2.65;;
4738;SDS011;2383;48.632;10.156;2022-07-19T01:13:31;4.45;;;2.67;;
4738;SDS011;2383;48.632;10.156;2022-07-19T01:17:34;8.20;;;2.70;;
4738;SDS011;2383;48.632;10.156;2022-07-19T01:21:35;3.72;;;2.40;;
4738;SDS011;2383;48.632;10.156;2022-07-19T01:25:38;3.58;;;2.30;;
4738;SDS011;2383;48.632;10.156;2022-07-19T01:29:39;3.15;;;2.70;;
4738;SDS011;2383;48.632;10.156;2022-07-19T01:33:42;3.13;;;2.40;;
4738;SDS011;2383;48.632;10.156;2022-07-19T01:37:45;3.53;;;2.90;;
4738;SDS011;2383;48.632;10.156;2022-07-19T01:41:47;5.22;;;3.00;;
4738;SDS011;2383;48.632;10.156;2022-07-19T01:45:49;4.03;;;2.95;;
4738;SDS011;2383;48.632;10.156;2022-07-19T01:49:51;2.90;;;2.58;;
4738;SDS011;2383;48.632;10.156;2022-07-19T01:53:53;3.33;;;2.70;;
4738;SDS011;2383;48.632;10.156;2022-07-19T01:57:54;4.22;;;2.90;;
4738;SDS011;2383;48.632;10.156;2022-07-19T02:01:57;9.05;;;3.00;;
4738;SDS011;2383;48.632;10.156;2022-07-19T02:05:59;3.22;;;2.40;;
4738;SDS011;2383;48.632;10.156;2022-07-19T02:10:02;3.45;;;2.80;;
4738;SDS011;2383;48.632;10.156;2022-07-19T02:14:05;5.03;;;3.35;;
4738;SDS011;2383;48.632;10.156;2022-07-19T02:18:09;3.55;;;2.83;;
4738;SDS011;2383;48.632;10.156;2022-07-19T02:22:11;6.05;;;3.28;;
4738;SDS011;2383;48.632;10.156;2022-07-19T02:26:13;5.38;;;3.00;;
4738;SDS011;2383;48.632;10.156;2022-07-19T02:30:15;5.97;;;3.15;;
4738;SDS011;2383;48.632;10.156;2022-07-19T02:34:18;3.20;;;2.90;;
4738;SDS011;2383;48.632;10.156;2022-07-19T02:38:20;4.05;;;3.10;;
4738;SDS011;2383;48.632;10.156;2022-07-19T02:42:21;4.57;;;2.75;;
4738;SDS011;2383;48.632;10.156;2022-07-19T02:46:23;8.32;;;3.03;;
4738;SDS011;2383;48.632;10.156;2022-07-19T02:50:25;3.83;;;2.83;;
4738;SDS011;2383;48.632;10.156;2022-07-19T02:54:27;5.80;;;2.72;;
4738;SDS011;2383;48.632;10.156;2022-07-19T02:58:29;7.50;;;3.15;;
4738;SDS011;2383;48.632;10.156;2022-07-19T03:02:31;3.42;;;3.00;;
4738;SDS011;2383;48.632;10.156;2022-07-19T03:06:32;4.28;;;3.03;;
4738;SDS011;2383;48.632;10.156;2022-07-19T03:10:34;3.20;;;2.90;;
4738;SDS011;2383;48.632;10.156;2022-07-19T03:14:36;6.78;;;3.15;;
4738;SDS011;2383;48.632;10.156;2022-07-19T03:18:38;4.43;;;3.00;;
4738;SDS011;2383;48.632;10.156;2022-07-19T03:22:39;4.50;;;2.80;;
4738;SDS011;2383;48.632;10.156;2022-07-19T03:26:41;3.85;;;3.05;;
4738;SDS011;2383;48.632;10.156;2022-07-19T03:30:43;5.18;;;2.90;;
4738;SDS011;2383;48.632;10.156;2022-07-19T03:34:45;3.83;;;2.85;;
4738;SDS011;2383;48.632;10.156;2022-07-19T03:38:47;5.85;;;3.33;;
4738;SDS011;2383;48.632;10.156;2022-07-19T03:42:49;5.53;;;3.25;;
4738;SDS011;2383;48.632;10.156;2022-07-19T03:46:50;5.82;;;3.30;;
4738;SDS011;2383;48.632;10.156;2022-07-19T03:50:52;6.57;;;3.30;;
4738;SDS011;2383;48.632;10.156;2022-07-19T03:54:54;4.70;;;3.08;;
4738;SDS011;2383;48.632;10.156;2022-07-19T03:58:56;5.38;;;3.22;;
4738;SDS011;2383;48.632;10.156;2022-07-19T04:02:58;4.65;;;3.20;;
4738;SDS011;2383;48.632;10.156;2022-07-19T04:07:00;4.93;;;3.50;;
4738;SDS011;2383;48.632;10.156;2022-07-19T04:11:02;3.83;;;3.33;;
4738;SDS011;2383;48.632;10.156;2022-07-19T04:15:06;6.85;;;4.18;;
4738;SDS011;2383;48.632;10.156;2022-07-19T04:19:08;10.27;;;3.95;;
4738;SDS011;2383;48.632;10.156;2022-07-19T04:23:10;6.38;;;3.70;;
4738;SDS011;2383;48.632;10.156;2022-07-19T04:27:12;4.47;;;3.58;;
4738;SDS011;2383;48.632;10.156;2022-07-19T04:31:13;7.65;;;3.83;;
4738;SDS011;2383;48.632;10.156;2022-07-19T04:35:21;7.97;;;4.03;;
4738;SDS011;2383;48.632;10.156;2022-07-19T04:39:23;7.40;;;3.67;;
4738;SDS011;2383;48.632;10.156;2022-07-19T04:43:24;9.60;;;4.07;;
4738;SDS011;2383;48.632;10.156;2022-07-19T04:47:27;4.75;;;3.70;;
4738;SDS011;2383;48.632;10.156;2022-07-19T04:51:28;7.32;;;4.05;;
4738;SDS011;2383;48.632;10.156;2022-07-19T04:55:30;6.25;;;3.95;;
4738;SDS011;2383;48.632;10.156;2022-07-19T04:59:32;6.88;;;4.10;;
4738;SDS011;2383;48.632;10.156;2022-07-19T05:03:34;9.93;;;4.22;;
4738;SDS011;2383;48.632;10.156;2022-07-19T05:07:36;4.90;;;4.38;;
4738;SDS011;2383;48.632;10.156;2022-07-19T05:11:38;8.10;;;4.18;;
4738;SDS011;2383;48.632;10.156;2022-07-19T05:15:41;10.45;;;4.50;;
4738;SDS011;2383;48.632;10.156;2022-07-19T05:19:43;6.20;;;4.20;;
4738;SDS011;2383;48.632;10.156;2022-07-19T05:23:45;8.57;;;4.05;;
4738;SDS011;2383;48.632;10.156;2022-07-19T05:27:46;12.40;;;4.35;;
4738;SDS011;2383;48.632;10.156;2022-07-19T05:31:48;12.38;;;4.25;;
4738;SDS011;2383;48.632;10.156;2022-07-19T05:35:52;12.63;;;4.85;;
4738;SDS011;2383;48.632;10.156;2022-07-19T05:39:53;8.30;;;4.00;;
4738;SDS011;2383;48.632;10.156;2022-07-19T05:43:55;9.63;;;4.45;;
4738;SDS011;2383;48.632;10.156;2022-07-19T05:47:57;7.68;;;4.28;;
4738;SDS011;2383;48.632;10.156;2022-07-19T05:52:00;9.20;;;4.00;;
4738;SDS011;2383;48.632;10.156;2022-07-19T05:56:02;9.63;;;4.53;;
4738;SDS011;2383;48.632;10.156;2022-07-19T06:00:05;8.85;;;4.00;;
4738;SDS011;2383;48.632;10.156;2022-07-19T06:04:07;5.43;;;3.67;;
4738;SDS011;2383;48.632;10.156;2022-07-19T06:08:09;10.80;;;3.72;;
4738;SDS011;2383;48.632;10.156;2022-07-19T06:12:11;7.10;;;3.67;;
4738;SDS011;2383;48.632;10.156;2022-07-19T06:16:12;7.00;;;4.07;;
4738;SDS011;2383;48.632;10.156;2022-07-19T06:20:14;5.85;;;3.35;;
4738;SDS011;2383;48.632;10.156;2022-07-19T06:24:16;10.07;;;4.15;;
4738;SDS011;2383;48.632;10.156;2022-07-19T06:28:18;13.95;;;4.32;;
4738;SDS011;2383;48.632;10.156;2022-07-19T06:32:20;8.68;;;3.45;;
4738;SDS011;2383;48.632;10.156;2022-07-19T06:36:21;4.97;;;3.38;;
4738;SDS011;2383;48.632;10.156;2022-07-19T06:40:23;13.52;;;3.55;;
4738;SDS011;2383;48.632;10.156;2022-07-19T06:44:25;8.63;;;2.90;;
4738;SDS011;2383;48.632;10.156;2022-07-19T06:48:27;9.43;;;2.97;;
4738;SDS011;2383;48.632;10.156;2022-07-19T06:52:28;9.52;;;3.20;;
4738;SDS011;2383;48.632;10.156;2022-07-19T06:56:30;11.85;;;3.70;;
4738;SDS011;2383;48.632;10.156;2022-07-19T07:00:32;7.13;;;3.28;;
4738;SDS011;2383;48.632;10.156;2022-07-19T07:04:34;6.22;;;3.28;;
4738;SDS011;2383;48.632;10.156;2022-07-19T07:08:46;6.20;;;3.00;;
4738;SDS011;2383;48.632;10.156;2022-07-19T07:12:47;5.13;;;2.17;;
4738;SDS011;2383;48.632;10.156;2022-07-19T07:16:50;8.43;;;2.60;;
4738;SDS011;2383;48.632;10.156;2022-07-19T07:20:52;6.38;;;2.47;;
4738;SDS011;2383;48.632;10.156;2022-07-19T07:24:55;9.15;;;2.65;;
4738;SDS011;2383;48.632;10.156;2022-07-19T07:28:57;4.28;;;2.15;;
4738;SDS011;2383;48.632;10.156;2022-07-19T07:32:59;3.83;;;2.38;;
4738;SDS011;2383;48.632;10.156;2022-07-19T07:37:00;4.22;;;2.33;;
4738;SDS011;2383;48.632;10.156;2022-07-19T07:41:03;5.53;;;2.10;;
4738;SDS011;2383;48.632;10.156;2022-07-19T07:45:26;4.65;;;2.00;;
4738;SDS011;2383;48.632;10.156;2022-07-19T07:49:28;3.97;;;2.13;;
4738;SDS011;2383;48.632;10.156;2022-07-19T07:53:31;6.32;;;2.03;;
4738;SDS011;2383;48.632;10.156;2022-07-19T07:57:33;3.45;;;2.17;;
4738;SDS011;2383;48.632;10.156;2022-07-19T08:01:36;4.53;;;2.13;;
4738;SDS011;2383;48.632;10.156;2022-07-19T08:05:40;6.25;;;2.40;;
4738;SDS011;2383;48.632;10.156;2022-07-19T08:09:42;2.92;;;2.22;;
4738;SDS011;2383;48.632;10.156;2022-07-19T08:13:43;4.65;;;2.08;;
4738;SDS011;2383;48.632;10.156;2022-07-19T08:17:45;2.47;;;1.67;;
4738;SDS011;2383;48.632;10.156;2022-07-19T08:21:48;5.10;;;1.83;;
4738;SDS011;2383;48.632;10.156;2022-07-19T08:25:52;6.22;;;1.92;;
4738;SDS011;2383;48.632;10.156;2022-07-19T08:29:54;5.00;;;1.90;;
4738;SDS011;2383;48.632;10.156;2022-07-19T08:33:56;5.78;;;1.70;;
4738;SDS011;2383;48.632;10.156;2022-07-19T08:37:58;1.73;;;1.40;;
4738;SDS011;2383;48.632;10.156;2022-07-19T08:41:59;3.30;;;1.90;;
4738;SDS011;2383;48.632;10.156;2022-07-19T08:46:02;5.45;;;1.90;;
4738;SDS011;2383;48.632;10.156;2022-07-19T08:50:05;2.25;;;1.80;;
4738;SDS011;2383;48.632;10.156;2022-07-19T08:54:09;1.88;;;1.50;;
4738;SDS011;2383;48.632;10.156;2022-07-19T08:58:11;5.80;;;1.60;;
4738;SDS011;2383;48.632;10.156;2022-07-19T09:02:13;7.25;;;2.30;;
4738;SDS011;2383;48.632;10.156;2022-07-19T09:06:15;4.78;;;1.88;;
4738;SDS011;2383;48.632;10.156;2022-07-19T09:10:18;3.75;;;1.92;;
4738;SDS011;2383;48.632;10.156;2022-07-19T09:14:24;4.90;;;1.80;;
4738;SDS011;2383;48.632;10.156;2022-07-19T09:18:49;2.83;;;2.13;;
4738;SDS011;2383;48.632;10.156;2022-07-19T09:23:04;6.78;;;1.98;;
4738;SDS011;2383;48.632;10.156;2022-07-19T09:27:08;6.35;;;2.15;;
4738;SDS011;2383;48.632;10.156;2022-07-19T09:31:11;9.00;;;2.55;;
4738;SDS011;2383;48.632;10.156;2022-07-19T09:35:13;5.22;;;1.80;;
4738;SDS011;2383;48.632;10.156;2022-07-19T09:39:26;9.32;;;2.45;;
4738;SDS011;2383;48.632;10.156;2022-07-19T09:43:29;2.95;;;2.00;;
4738;SDS011;2383;48.632;10.156;2022-07-19T09:47:51;5.25;;;2.30;;
4738;SDS011;2383;48.632;10.156;2022-07-19T09:51:55;2.35;;;1.90;;
4738;SDS011;2383;48.632;10.156;2022-07-19T09:55:57;4.53;;;2.00;;
4738;SDS011;2383;48.632;10.156;2022-07-19T10:00:00;6.63;;;2.42;;
4738;SDS011;2383;48.632;10.156;2022-07-19T10:04:06;5.75;;;2.70;;
4738;SDS011;2383;48.632;10.156;2022-07-19T10:08:09;4.07;;;2.20;;
4738;SDS011;2383;48.632;10.156;2022-07-19T10:12:12;4.10;;;2.10;;
4738;SDS011;2383;48.632;10.156;2022-07-19T10:16:15;6.80;;;2.72;;
4738;SDS011;2383;48.632;10.156;2022-07-19T10:20:23;5.13;;;2.20;;
4738;SDS011;2383;48.632;10.156;2022-07-19T10:24:40;5.03;;;2.40;;
4738;SDS011;2383;48.632;10.156;2022-07-19T10:28:52;5.13;;;2.70;;
4738;SDS011;2383;48.632;10.156;2022-07-19T10:33:28;6.05;;;2.40;;
4738;SDS011;2383;48.632;10.156;2022-07-19T10:37:41;5.30;;;2.40;;
4738;SDS011;2383;48.632;10.156;2022-07-19T10:46:11;6.57;;;2.17;;
4738;SDS011;2383;48.632;10.156;2022-07-19T10:50:14;5.10;;;2.33;;
4738;SDS011;2383;48.632;10.156;2022-07-19T10:54:19;2.63;;;1.77;;
4738;SDS011;2383;48.632;10.156;2022-07-19T10:58:21;3.83;;;2.10;;
4738;SDS011;2383;48.632;10.156;2022-07-19T11:02:23;3.30;;;2.03;;
4738;SDS011;2383;48.632;10.156;2022-07-19T11:06:43;10.38;;;2.25;;
4738;SDS011;2383;48.632;10.156;2022-07-19T11:10:45;5.57;;;2.05;;
4738;SDS011;2383;48.632;10.156;2022-07-19T11:14:47;3.88;;;1.90;;
4738;SDS011;2383;48.632;10.156;2022-07-19T11:19:09;4.20;;;1.75;;
4738;SDS011;2383;48.632;10.156;2022-07-19T11:23:16;3.90;;;2.22;;
4738;SDS011;2383;48.632;10.156;2022-07-19T11:27:19;3.83;;;2.17;;
4738;SDS011;2383;48.632;10.156;2022-07-19T11:31:23;4.22;;;2.10;;
4738;SDS011;2383;48.632;10.156;2022-07-19T11:35:26;3.85;;;1.85;;
4738;SDS011;2383;48.632;10.156;2022-07-19T11:39:45;2.03;;;1.80;;
4738;SDS011;2383;48.632;10.156;2022-07-19T11:43:54;7.07;;;2.22;;
4738;SDS011;2383;48.632;10.156;2022-07-19T11:47:57;3.22;;;2.15;;
4738;SDS011;2383;48.632;10.156;2022-07-19T11:51:59;7.40;;;2.13;;
4738;SDS011;2383;48.632;10.156;2022-07-19T11:56:02;3.83;;;2.20;;
4738;SDS011;2383;48.632;10.156;2022-07-19T12:00:06;2.35;;;1.80;;
4738;SDS011;2383;48.632;10.156;2022-07-19T12:04:11;3.22;;;1.98;;
4738;SDS011;2383;48.632;10.156;2022-07-19T12:08:14;1.58;;;1.48;;
4738;SDS011;2383;48.632;10.156;2022-07-19T12:12:16;3.08;;;1.80;;
4738;SDS011;2383;48.632;10.156;2022-07-19T12:16:19;4.63;;;1.85;;
4738;SDS011;2383;48.632;10.156;2022-07-19T12:20:22;2.30;;;1.85;;
4738;SDS011;2383;48.632;10.156;2022-07-19T12:24:44;5.40;;;1.80;;
4738;SDS011;2383;48.632;10.156;2022-07-19T12:28:46;7.88;;;2.13;;
4738;SDS011;2383;48.632;10.156;2022-07-19T12:32:49;7.18;;;2.00;;
4738;SDS011;2383;48.632;10.156;2022-07-19T12:36:51;3.95;;;1.77;;
4738;SDS011;2383;48.632;10.156;2022-07-19T12:41:01;3.03;;;1.80;;
4738;SDS011;2383;48.632;10.156;2022-07-19T12:45:09;5.50;;;1.75;;
4738;SDS011;2383;48.632;10.156;2022-07-19T12:49:19;3.25;;;1.73;;
4738;SDS011;2383;48.632;10.156;2022-07-19T12:53:21;2.53;;;2.00;;
4738;SDS011;2383;48.632;10.156;2022-07-19T12:57:23;6.07;;;1.90;;
4738;SDS011;2383;48.632;10.156;2022-07-19T13:01:25;2.30;;;1.70;;
4738;SDS011;2383;48.632;10.156;2022-07-19T13:05:27;4.72;;;2.00;;
4738;SDS011;2383;48.632;10.156;2022-07-19T13:09:29;8.80;;;1.63;;
4738;SDS011;2383;48.632;10.156;2022-07-19T13:13:32;5.82;;;1.70;;
4738;SDS011;2383;48.632;10.156;2022-07-19T13:17:36;5.07;;;1.75;;
4738;SDS011;2383;48.632;10.156;2022-07-19T13:21:38;5.60;;;1.67;;
4738;SDS011;2383;48.632;10.156;2022-07-19T13:25:39;3.70;;;1.60;;
4738;SDS011;2383;48.632;10.156;2022-07-19T13:29:46;4.20;;;1.80;;
4738;SDS011;2383;48.632;10.156;2022-07-19T13:33:47;5.70;;;1.90;;
4738;SDS011;2383;48.632;10.156;2022-07-19T13:37:49;5.50;;;1.60;;
4738;SDS011;2383;48.632;10.156;2022-07-19T13:41:51;2.08;;;1.65;;
4738;SDS011;2383;48.632;10.156;2022-07-19T13:45:53;9.88;;;1.75;;
4738;SDS011;2383;48.632;10.156;2022-07-19T13:49:55;7.18;;;1.95;;
4738;SDS011;2383;48.632;10.156;2022-07-19T13:53:59;4.05;;;1.88;;
4738;SDS011;2383;48.632;10.156;2022-07-19T13:58:01;3.90;;;1.90;;
4738;SDS011;2383;48.632;10.156;2022-07-19T14:02:04;2.25;;;1.75;;
4738;SDS011;2383;48.632;10.156;2022-07-19T14:06:06;3.28;;;1.85;;
4738;SDS011;2383;48.632;10.156;2022-07-19T14:10:08;2.85;;;2.25;;
4738;SDS011;2383;48.632;10.156;2022-07-19T14:14:10;6.18;;;2.58;;
4738;SDS011;2383;48.632;10.156;2022-07-19T14:18:12;11.55;;;2.80;;
4738;SDS011;2383;48.632;10.156;2022-07-19T14:22:14;7.50;;;2.60;;
4738;SDS011;2383;48.632;10.156;2022-07-19T14:26:16;4.13;;;2.33;;
4738;SDS011;2383;48.632;10.156;2022-07-19T14:30:18;6.95;;;2.58;;
4738;SDS011;2383;48.632;10.156;2022-07-19T14:34:20;12.10;;;2.40;;
4738;SDS011;2383;48.632;10.156;2022-07-19T14:38:38;7.22;;;2.22;;
4738;SDS011;2383;48.632;10.156;2022-07-19T14:42:40;7.28;;;2.40;;
4738;SDS011;2383;48.632;10.156;2022-07-19T14:46:45;2.90;;;2.20;;
4738;SDS011;2383;48.632;10.156;2022-07-19T14:50:47;2.38;;;2.13;;
4738;SDS011;2383;48.632;10.156;2022-07-19T14:54:49;8.13;;;2.40;;
4738;SDS011;2383;48.632;10.156;2022-07-19T14:58:51;6.35;;;2.20;;
4738;SDS011;2383;48.632;10.156;2022-07-19T15:02:53;4.70;;;2.47;;
4738;SDS011;2383;48.632;10.156;2022-07-19T15:06:55;2.75;;;2.25;;
4738;SDS011;2383;48.632;10.156;2022-07-19T15:10:58;3.58;;;2.38;;
4738;SDS011;2383;48.632;10.156;2022-07-19T15:15:00;11.15;;;2.80;;
4738;SDS011;2383;48.632;10.156;2022-07-19T15:19:02;5.53;;;2.55;;
4738;SDS011;2383;48.632;10.156;2022-07-19T15:23:04;7.53;;;2.95;;
4738;SDS011;2383;48.632;10.156;2022-07-19T15:27:06;7.72;;;3.05;;
4738;SDS011;2383;48.632;10.156;2022-07-19T15:31:08;4.38;;;2.90;;
4738;SDS011;2383;48.632;10.156;2022-07-19T15:35:11;7.03;;;2.92;;
4738;SDS011;2383;48.632;10.156;2022-07-19T15:39:20;6.43;;;2.58;;
4738;SDS011;2383;48.632;10.156;2022-07-19T15:43:21;11.50;;;4.35;;
4738;SDS011;2383;48.632;10.156;2022-07-19T15:47:23;4.07;;;2.90;;
4738;SDS011;2383;48.632;10.156;2022-07-19T15:51:25;10.55;;;3.10;;
4738;SDS011;2383;48.632;10.156;2022-07-19T15:55:29;10.20;;;2.78;;
4738;SDS011;2383;48.632;10.156;2022-07-19T15:59:31;8.68;;;2.75;;
4738;SDS011;2383;48.632;10.156;2022-07-19T16:03:33;5.47;;;2.83;;
4738;SDS011;2383;48.632;10.156;2022-07-19T16:07:36;4.47;;;2.70;;
4738;SDS011;2383;48.632;10.156;2022-07-19T16:11:38;9.38;;;5.32;;
4738;SDS011;2383;48.632;10.156;2022-07-19T16:15:40;7.10;;;4.88;;
4738;SDS011;2383;48.632;10.156;2022-07-19T16:19:51;7.25;;;5.63;;
4738;SDS011;2383;48.632;10.156;2022-07-19T16:23:53;9.88;;;5.10;;
4738;SDS011;2383;48.632;10.156;2022-07-19T16:27:55;22.60;;;7.70;;
4738;SDS011;2383;48.632;10.156;2022-07-19T16:31:56;16.73;;;11.38;;
4738;SDS011;2383;48.632;10.156;2022-07-19T16:35:59;11.93;;;5.10;;
4738;SDS011;2383;48.632;10.156;2022-07-19T16:40:06;4.88;;;3.53;;
4738;SDS011;2383;48.632;10.156;2022-07-19T16:44:09;5.93;;;2.47;;
4738;SDS011;2383;48.632;10.156;2022-07-19T16:48:11;6.97;;;2.72;;
4738;SDS011;2383;48.632;10.156;2022-07-19T16:52:14;12.48;;;2.72;;
4738;SDS011;2383;48.632;10.156;2022-07-19T16:56:15;5.38;;;2.50;;
4738;SDS011;2383;48.632;10.156;2022-07-19T17:00:17;5.40;;;2.40;;
4738;SDS011;2383;48.632;10.156;2022-07-19T17:04:20;8.63;;;2.33;;
4738;SDS011;2383;48.632;10.156;2022-07-19T17:08:22;16.08;;;3.22;;
4738;SDS011;2383;48.632;10.156;2022-07-19T17:12:23;3.78;;;2.47;;
4738;SDS011;2383;48.632;10.156;2022-07-19T17:16:25;4.25;;;2.58;;
4738;SDS011;2383;48.632;10.156;2022-07-19T17:20:28;3.88;;;2.58;;
4738;SDS011;2383;48.632;10.156;2022-07-19T17:24:29;8.85;;;2.97;;
4738;SDS011;2383;48.632;10.156;2022-07-19T17:28:31;5.65;;;2.65;;
4738;SDS011;2383;48.632;10.156;2022-07-19T17:32:33;7.32;;;2.35;;
4738;SDS011;2383;48.632;10.156;2022-07-19T17:36:35;3.65;;;2.13;;
4738;SDS011;2383;48.632;10.156;2022-07-19T17:40:37;7.97;;;2.78;;
4738;SDS011;2383;48.632;10.156;2022-07-19T17:44:39;7.70;;;2.20;;
4738;SDS011;2383;48.632;10.156;2022-07-19T17:48:40;4.50;;;2.67;;
4738;SDS011;2383;48.632;10.156;2022-07-19T17:52:48;7.13;;;2.42;;
4738;SDS011;2383;48.632;10.156;2022-07-19T17:56:50;10.55;;;2.53;;
4738;SDS011;2383;48.632;10.156;2022-07-19T18:00:52;14.70;;;2.65;;
4738;SDS011;2383;48.632;10.156;2022-07-19T18:04:54;4.85;;;2.50;;
4738;SDS011;2383;48.632;10.156;2022-07-19T18:08:56;8.48;;;2.60;;
4738;SDS011;2383;48.632;10.156;2022-07-19T18:12:58;4.63;;;2.42;;
4738;SDS011;2383;48.632;10.156;2022-07-19T18:17:00;7.45;;;2.60;;
4738;SDS011;2383;48.632;10.156;2022-07-19T18:21:10;11.40;;;2.90;;
4738;SDS011;2383;48.632;10.156;2022-07-19T18:25:12;6.22;;;2.45;;
4738;SDS011;2383;48.632;10.156;2022-07-19T18:29:14;13.65;;;2.78;;
4738;SDS011;2383;48.632;10.156;2022-07-19T18:33:17;7.97;;;2.40;;
4738;SDS011;2383;48.632;10.156;2022-07-19T18:37:19;9.63;;;2.17;;
4738;SDS011;2383;48.632;10.156;2022-07-19T18:41:24;4.35;;;2.58;;
4738;SDS011;2383;48.632;10.156;2022-07-19T18:45:26;6.82;;;2.70;;
4738;SDS011;2383;48.632;10.156;2022-07-19T18:49:27;6.97;;;2.75;;
4738;SDS011;2383;48.632;10.156;2022-07-19T18:53:34;3.92;;;2.28;;
4738;SDS011;2383;48.632;10.156;2022-07-19T18:57:41;8.88;;;2.53;;
4738;SDS011;2383;48.632;10.156;2022-07-19T19:01:43;5.63;;;2.58;;
4738;SDS011;2383;48.632;10.156;2022-07-19T19:05:45;7.93;;;3.10;;
4738;SDS011;2383;48.632;10.156;2022-07-19T19:09:48;11.80;;;2.90;;
4738;SDS011;2383;48.632;10.156;2022-07-19T19:13:50;5.57;;;2.58;;
4738;SDS011;2383;48.632;10.156;2022-07-19T19:17:52;14.32;;;2.70;;
4738;SDS011;2383;48.632;10.156;2022-07-19T19:21:55;5.85;;;2.63;;
4738;SDS011;2383;48.632;10.156;2022-07-19T19:25:57;6.32;;;3.20;;
4738;SDS011;2383;48.632;10.156;2022-07-19T19:29:59;6.03;;;2.70;;
4738;SDS011;2383;48.632;10.156;2022-07-19T19:34:01;3.42;;;2.65;;
4738;SDS011;2383;48.632;10.156;2022-07-19T19:38:03;7.95;;;3.40;;
4738;SDS011;2383;48.632;10.156;2022-07-19T19:42:07;5.75;;;2.80;;
4738;SDS011;2383;48.632;10.156;2022-07-19T19:46:09;8.70;;;3.00;;
4738;SDS011;2383;48.632;10.156;2022-07-19T19:50:11;7.22;;;2.80;;
4738;SDS011;2383;48.632;10.156;2022-07-19T19:54:14;6.07;;;2.80;;
4738;SDS011;2383;48.632;10.156;2022-07-19T19:58:16;4.75;;;2.60;;
4738;SDS011;2383;48.632;10.156;2022-07-19T20:02:17;7.25;;;2.95;;
4738;SDS011;2383;48.632;10.156;2022-07-19T20:06:19;8.95;;;3.30;;
4738;SDS011;2383;48.632;10.156;2022-07-19T20:10:21;9.02;;;2.95;;
4738;SDS011;2383;48.632;10.156;2022-07-19T20:14:23;8.23;;;3.40;;
4738;SDS011;2383;48.632;10.156;2022-07-19T20:18:25;6.30;;;3.50;;
4738;SDS011;2383;48.632;10.156;2022-07-19T20:22:27;7.55;;;3.42;;
4738;SDS011;2383;48.632;10.156;2022-07-19T20:26:29;7.32;;;3.20;;
4738;SDS011;2383;48.632;10.156;2022-07-19T20:30:30;6.78;;;3.30;;
4738;SDS011;2383;48.632;10.156;2022-07-19T20:34:32;12.07;;;3.90;;
4738;SDS011;2383;48.632;10.156;2022-07-19T20:38:35;8.38;;;3.28;;
4738;SDS011;2383;48.632;10.156;2022-07-19T20:42:37;9.15;;;3.55;;
4738;SDS011;2383;48.632;10.156;2022-07-19T20:46:39;6.55;;;3.65;;
4738;SDS011;2383;48.632;10.156;2022-07-19T20:50:41;13.48;;;3.53;;
4738;SDS011;2383;48.632;10.156;2022-07-19T20:54:43;11.02;;;4.05;;
4738;SDS011;2383;48.632;10.156;2022-07-19T20:58:45;9.73;;;3.60;;
4738;SDS011;2383;48.632;10.156;2022-07-19T21:02:47;14.15;;;3.55;;
4738;SDS011;2383;48.632;10.156;2022-07-19T21:06:57;7.45;;;3.22;;
4738;SDS011;2383;48.632;10.156;2022-07-19T21:10:59;6.53;;;3.30;;
4738;SDS011;2383;48.632;10.156;2022-07-19T21:15:02;10.07;;;3.65;;
4738;SDS011;2383;48.632;10.156;2022-07-19T21:19:04;8.85;;;3.50;;
4738;SDS011;2383;48.632;10.156;2022-07-19T21:23:06;5.60;;;3.70;;
4738;SDS011;2383;48.632;10.156;2022-07-19T21:27:08;10.32;;;4.25;;
4738;SDS011;2383;48.632;10.156;2022-07-19T21:31:10;8.07;;;3.50;;
4738;SDS011;2383;48.632;10.156;2022-07-19T21:35:11;10.45;;;3.55;;
4738;SDS011;2383;48.632;10.156;2022-07-19T21:39:13;8.60;;;4.00;;
4738;SDS011;2383;48.632;10.156;2022-07-19T21:43:15;9.25;;;4.30;;
4738;SDS011;2383;48.632;10.156;2022-07-19T21:47:17;7.90;;;3.65;;
4738;SDS011;2383;48.632;10.156;2022-07-19T21:51:21;5.72;;;3.63;;
4738;SDS011;2383;48.632;10.156;2022-07-19T21:55:24;11.10;;;4.07;;
4738;SDS011;2383;48.632;10.156;2022-07-19T21:59:26;5.03;;;3.97;;
4738;SDS011;2383;48.632;10.156;2022-07-19T22:03:28;8.02;;;3.90;;
4738;SDS011;2383;48.632;10.156;2022-07-19T22:07:32;8.18;;;4.30;;
4738;SDS011;2383;48.632;10.156;2022-07-19T22:11:39;5.50;;;3.83;;
4738;SDS011;2383;48.632;10.156;2022-07-19T22:15:41;9.50;;;4.30;;
4738;SDS011;2383;48.632;10.156;2022-07-19T22:19:43;9.35;;;4.15;;
4738;SDS011;2383;48.632;10.156;2022-07-19T22:23:45;8.45;;;4.55;;
4738;SDS011;2383;48.632;10.156;2022-07-19T22:27:46;9.75;;;4.07;;
4738;SDS011;2383;48.632;10.156;2022-07-19T22:31:48;8.75;;;4.00;;
4738;SDS011;2383;48.632;10.156;2022-07-19T22:35:50;8.85;;;4.00;;
4738;SDS011;2383;48.632;10.156;2022-07-19T22:39:53;10.38;;;4.75;;
4738;SDS011;2383;48.632;10.156;2022-07-19T22:43:55;6.47;;;4.40;;
4738;SDS011;2383;48.632;10.156;2022-07-19T22:47:57;8.98;;;4.22;;
4738;SDS011;2383;48.632;10.156;2022-07-19T22:51:59;6.88;;;3.80;;
4738;SDS011;2383;48.632;10.156;2022-07-19T22:56:01;10.30;;;4.63;;
4738;SDS011;2383;48.632;10.156;2022-07-19T23:00:03;9.82;;;4.38;;
4738;SDS011;2383;48.632;10.156;2022-07-19T23:04:07;5.45;;;4.05;;
4738;SDS011;2383;48.632;10.156;2022-07-19T23:08:09;7.18;;;3.72;;
4738;SDS011;2383;48.632;10.156;2022-07-19T23:12:11;7.40;;;4.32;;
4738;SDS011;2383;48.632;10.156;2022-07-19T23:16:13;8.50;;;4.28;;
4738;SDS011;2383;48.632;10.156;2022-07-19T23:20:15;7.22;;;4.32;;
4738;SDS011;2383;48.632;10.156;2022-07-19T23:24:16;6.60;;;4.40;;
4738;SDS011;2383;48.632;10.156;2022-07-19T23:28:18;7.97;;;4.35;;
4738;SDS011;2383;48.632;10.156;2022-07-19T23:32:20;8.77;;;4.63;;
4738;SDS011;2383;48.632;10.156;2022-07-19T23:36:22;10.40;;;4.40;;
4738;SDS011;2383;48.632;10.156;2022-07-19T23:40:23;6.85;;;4.32;;
4738;SDS011;2383;48.632;10.156;2022-07-19T23:44:25;7.25;;;4.63;;
4738;SDS011;2383;48.632;10.156;2022-07-19T23:48:27;5.03;;;4.30;;
4738;SDS011;2383;48.632;10.156;2022-07-19T23:52:29;10.93;;;5.25;;
4738;SDS011;2383;48.632;10.156;2022-07-19T23:56:31;6.38;;;4.18;;
